Time;durP1;ratioP1;P1;durP2;ratioP2;P2;SDS_P1;SDS_P2;PMS_P1;PMS_P2;Temp;Humidity;BMP_temperature;BMP_pressure;BME280_temperature;BME280_humidity;BME280_pressure;Samples;Min_cycle;Max_cycle;Signal;HPM_P1;HPM_P2
2023/06/24 00:01:27;;;;;;;14.63;6.67;;;;;;;25.09;49.51;100336.00;124170;1099;104207;-81
2023/06/24 00:03:58;;;;;;;14.83;6.70;;;;;;;25.06;50.13;100336.08;124113;1099;104251;-79
2023/06/24 00:06:30;;;;;;;11.85;6.70;;;;;;;25.04;49.75;100337.93;124176;1099;104354;-79
2023/06/24 00:09:01;;;;;;;16.23;7.03;;;;;;;25.02;49.89;100339.75;124070;1099;104341;-81
2023/06/24 00:11:32;;;;;;;13.37;7.13;;;;;;;25.02;50.34;100331.70;123876;1102;104305;-80
2023/06/24 00:14:05;;;;;;;14.07;6.73;;;;;;;25.02;50.11;100336.20;123964;1099;104257;-80
2023/06/24 00:16:36;;;;;;;13.50;6.80;;;;;;;24.99;50.12;100333.59;123888;1098;104283;-79
2023/06/24 00:19:07;;;;;;;16.90;6.87;;;;;;;24.95;50.65;100335.49;123867;1099;104398;-80
2023/06/24 00:21:39;;;;;;;17.03;6.90;;;;;;;24.93;50.80;100343.58;124202;1099;104281;-79
2023/06/24 00:24:11;;;;;;;15.60;6.80;;;;;;;24.92;50.56;100341.81;124253;1099;104238;-80
2023/06/24 00:26:42;;;;;;;13.67;7.10;;;;;;;24.92;51.03;100340.94;124098;1099;104345;-80
2023/06/24 00:29:14;;;;;;;12.07;6.87;;;;;;;24.87;51.27;100345.52;123877;1099;104230;-80
2023/06/24 00:31:46;;;;;;;13.98;6.75;;;;;;;24.85;51.17;100352.73;124081;1099;104217;-80
2023/06/24 00:34:19;;;;;;;11.37;6.73;;;;;;;24.87;51.19;100353.57;123946;1099;104264;-81
2023/06/24 00:36:52;;;;;;;13.43;6.80;;;;;;;24.87;51.19;100356.25;123882;1099;104235;-80
2023/06/24 00:39:22;;;;;;;;;;;;;;;24.85;51.02;100344.69;124193;1099;104236;-81
2023/06/24 00:41:54;;;;;;;10.87;6.70;;;;;;;24.85;51.32;100342.88;124270;1099;104367;-81
2023/06/24 00:44:26;;;;;;;13.00;7.10;;;;;;;24.86;51.68;100343.78;124175;1099;104369;-81
2023/06/24 00:46:58;;;;;;;11.95;6.55;;;;;;;24.82;51.39;100344.77;124184;1099;104312;-82
2023/06/24 00:49:29;;;;;;;14.67;6.80;;;;;;;24.78;51.67;100341.30;124126;1099;104265;-81
2023/06/24 00:52:01;;;;;;;12.30;6.90;;;;;;;24.78;51.78;100338.61;124308;1099;104347;-79
2023/06/24 00:54:32;;;;;;;14.27;6.70;;;;;;;24.75;51.99;100339.55;124125;1099;104273;-80
2023/06/24 00:57:04;;;;;;;12.80;6.90;;;;;;;24.78;51.97;100337.70;124014;1099;104409;-79
2023/06/24 00:59:36;;;;;;;14.40;7.10;;;;;;;24.78;51.93;100343.98;124137;1099;104341;-79
2023/06/24 01:02:08;;;;;;;12.60;6.93;;;;;;;24.78;52.44;100337.70;124192;1099;104313;-80
2023/06/24 01:04:40;;;;;;;12.50;6.60;;;;;;;24.76;52.34;100341.33;124112;1099;104341;-80
2023/06/24 01:07:12;;;;;;;13.23;6.97;;;;;;;24.77;52.45;100339.52;124131;1098;104236;-80
2023/06/24 01:09:43;;;;;;;13.40;6.97;;;;;;;24.77;52.61;100331.47;124549;1099;104379;-80
2023/06/24 01:12:15;;;;;;;15.70;6.90;;;;;;;24.76;52.63;100337.75;124677;1098;104251;-80
2023/06/24 01:14:46;;;;;;;12.43;6.67;;;;;;;24.75;52.90;100344.05;124297;1099;104350;-80
2023/06/24 01:17:22;;;;;;;13.83;7.27;;;;;;;24.72;52.37;100350.37;124195;1099;104246;-79
2023/06/24 01:20:10;;;;;;;11.90;7.03;;;;;;;24.66;52.91;100376.48;123903;1099;104327;-80
2023/06/24 01:23:12;;;;;;;14.17;7.27;;;;;;;24.58;53.03;100352.52;124039;1099;104399;-79
2023/06/24 01:26:09;;;;;;;16.63;7.20;;;;;;;24.56;52.92;100341.80;124496;1099;104402;-79
2023/06/24 01:29:11;;;;;;;15.87;7.33;;;;;;;24.50;53.07;100325.85;124263;1099;104249;-80
2023/06/24 01:31:48;;;;;;;12.40;7.17;;;;;;;24.47;52.41;100357.23;123977;1098;104386;-80
2023/06/24 01:34:27;;;;;;;14.35;7.15;;;;;;;24.43;53.58;100352.86;123812;1099;104190;-80
2023/06/24 01:37:07;;;;;;;14.30;7.27;;;;;;;24.41;53.33;100363.62;123942;1099;104329;-80
2023/06/24 01:39:44;;;;;;;14.17;7.37;;;;;;;24.41;53.13;100358.25;123989;1099;104313;-79
2023/06/24 01:42:18;;;;;;;14.27;7.70;;;;;;;24.40;53.67;100353.80;123960;1099;110968;-81
2023/06/24 01:45:11;;;;;;;13.07;6.97;;;;;;;24.41;53.67;100345.72;124139;1099;104236;-81
2023/06/24 01:47:44;;;;;;;15.60;7.63;;;;;;;24.40;53.19;100370.80;124263;1099;104265;-79
2023/06/24 01:50:15;;;;;;;;;;;;;;;24.36;53.35;100374.45;123786;1099;104239;-80
2023/06/24 01:52:47;;;;;;;14.83;7.30;;;;;;;24.36;53.58;100374.45;124277;1099;104267;-80
2023/06/24 01:55:23;;;;;;;17.90;7.10;;;;;;;24.36;53.72;100374.45;124417;1099;104664;-81
2023/06/24 01:57:57;;;;;;;11.60;7.03;;;;;;;24.35;53.87;100377.17;124350;1098;104264;-80
2023/06/24 02:00:30;;;;;;;13.70;7.07;;;;;;;24.33;54.20;100385.25;123922;1103;104309;-80
2023/06/24 02:03:02;;;;;;;14.15;7.40;;;;;;;24.34;53.59;100380.75;124173;1099;104338;-80
2023/06/24 02:05:35;;;;;;;16.77;7.53;;;;;;;24.32;53.96;100377.23;124060;1099;104200;-80
2023/06/24 02:08:09;;;;;;;13.72;7.35;;;;;;;24.29;54.22;100375.50;124282;1099;104255;-80
2023/06/24 02:10:42;;;;;;;14.63;7.80;;;;;;;24.28;54.39;100379.12;123973;1099;104223;-80
2023/06/24 02:13:14;;;;;;;18.63;7.67;;;;;;;24.28;54.45;100365.71;124346;1099;104277;-79
2023/06/24 02:15:47;;;;;;;15.57;8.10;;;;;;;24.27;54.74;100368.43;124189;1099;104422;-80
2023/06/24 02:18:21;;;;;;;13.72;7.65;;;;;;;24.26;54.96;100372.02;123807;1099;104261;-80
2023/06/24 02:20:54;;;;;;;15.63;7.70;;;;;;;24.25;54.76;100376.50;124075;1099;104319;-80
2023/06/24 02:23:26;;;;;;;15.00;7.63;;;;;;;24.25;54.88;100379.19;123930;1099;104291;-80
2023/06/24 02:25:58;;;;;;;13.83;7.23;;;;;;;24.25;55.15;100375.60;124035;1098;104313;-80
2023/06/24 02:28:30;;;;;;;14.07;7.83;;;;;;;24.24;55.44;100372.05;124190;1099;104370;-80
2023/06/24 02:31:02;;;;;;;14.90;7.83;;;;;;;24.24;55.47;100374.73;123856;1099;104271;-79
2023/06/24 02:33:33;;;;;;;14.63;8.10;;;;;;;24.27;55.25;100376.47;124283;1098;104317;-78
2023/06/24 02:36:05;;;;;;;14.40;8.07;;;;;;;24.27;55.62;100374.66;123891;1099;104335;-80
2023/06/24 02:38:37;;;;;;;15.90;8.10;;;;;;;24.29;55.74;100374.62;124127;1099;104326;-79
2023/06/24 02:41:08;;;;;;;17.93;8.10;;;;;;;24.28;55.51;100379.12;124199;1099;104479;-80
2023/06/24 02:43:40;;;;;;;13.40;7.50;;;;;;;24.26;55.77;100388.97;124173;1099;104265;-80
2023/06/24 02:46:12;;;;;;;14.83;8.00;;;;;;;24.27;55.75;100384.52;123874;1099;104378;-80
2023/06/24 02:48:46;;;;;;;16.73;7.30;;;;;;;24.28;55.59;100388.94;124020;1099;104315;-80
2023/06/24 02:51:18;;;;;;;15.37;8.10;;;;;;;24.28;56.06;100386.26;124010;1099;104310;-80
2023/06/24 02:53:51;;;;;;;13.45;7.65;;;;;;;24.30;55.92;100381.77;123860;1099;104335;-82
2023/06/24 02:56:28;;;;;;;16.83;7.87;;;;;;;24.31;56.16;100387.09;123837;1099;104345;-80
2023/06/24 02:58:59;;;;;;;14.85;7.60;;;;;;;24.33;56.00;100382.56;123802;1099;104335;-80
2023/06/24 03:01:38;;;;;;;10.93;7.33;;;;;;;24.35;56.19;100382.53;124206;1099;104273;-79
2023/06/24 03:04:12;;;;;;;20.03;8.50;;;;;;;24.37;56.05;100373.55;124257;1099;104273;-79
2023/06/24 03:06:45;;;;;;;16.10;8.37;;;;;;;24.40;56.12;100381.52;123973;1099;104313;-79
2023/06/24 03:09:17;;;;;;;15.00;8.03;;;;;;;24.44;56.51;100387.68;123828;1099;104262;-80
2023/06/24 03:11:48;;;;;;;19.17;8.17;;;;;;;24.48;56.49;100377.75;123815;1099;104178;-79
2023/06/24 03:14:25;;;;;;;21.60;8.07;;;;;;;24.49;56.42;100380.40;123906;1099;104325;-79
2023/06/24 03:16:58;;;;;;;14.10;7.50;;;;;;;24.52;56.67;100376.77;124269;1099;104293;-79
2023/06/24 03:19:31;;;;;;;14.90;8.20;;;;;;;24.55;56.57;100364.16;124521;1099;104264;-79
2023/06/24 03:22:02;;;;;;;17.60;8.20;;;;;;;24.58;56.68;100365.93;123789;1099;104333;-79
2023/06/24 03:24:34;;;;;;;17.30;7.67;;;;;;;24.61;56.94;100364.98;124107;1099;104198;-78
2023/06/24 03:27:06;;;;;;;17.93;8.70;;;;;;;24.63;56.60;100358.64;123895;1099;104287;-80
2023/06/24 03:29:42;;;;;;;16.23;7.87;;;;;;;24.68;57.28;100350.48;123909;1099;104304;-80
2023/06/24 03:32:16;;;;;;;14.67;7.90;;;;;;;24.71;57.04;100353.99;124115;1098;104486;-79
2023/06/24 03:34:48;;;;;;;16.63;7.60;;;;;;;24.73;57.24;100349.45;123890;1099;104290;-79
2023/06/24 03:37:19;;;;;;;16.53;8.17;;;;;;;24.77;57.06;100347.56;124027;1099;104293;-80
2023/06/24 03:39:50;;;;;;;18.87;9.40;;;;;;;24.82;56.95;100340.27;123958;1099;104249;-80
2023/06/24 03:42:22;;;;;;;17.03;9.03;;;;;;;24.86;57.24;100341.09;124046;1099;104280;-80
2023/06/24 03:44:53;;;;;;;14.73;7.97;;;;;;;24.91;57.11;100336.48;124034;1099;104514;-80
2023/06/24 03:47:25;;;;;;;15.20;8.15;;;;;;;24.95;57.28;100330.12;123913;1099;104239;-80
2023/06/24 03:49:56;;;;;;;16.13;7.97;;;;;;;24.99;56.79;100322.86;124207;1099;104262;-79
2023/06/24 03:52:28;;;;;;;19.77;8.30;;;;;;;25.01;57.31;100316.54;123855;1099;104344;-79
2023/06/24 03:55:01;;;;;;;17.90;8.20;;;;;;;25.03;57.07;100305.77;123976;1099;104335;-78
2023/06/24 03:57:32;;;;;;;15.60;8.23;;;;;;;25.02;57.11;100302.17;123891;1099;104229;-80
2023/06/24 04:00:12;;;;;;;17.40;7.77;;;;;;;25.03;57.31;100293.21;123867;1099;104309;-79
2023/06/24 04:02:45;;;;;;;19.83;7.90;;;;;;;25.03;57.03;100274.42;124621;1099;104261;-78
2023/06/24 04:05:16;;;;;;;17.27;8.10;;;;;;;25.04;57.28;100262.77;124056;1099;104225;-78
2023/06/24 04:07:47;;;;;;;16.00;8.10;;;;;;;25.03;57.64;100269.05;124058;1099;104351;-79
2023/06/24 04:10:20;;;;;;;18.87;8.17;;;;;;;25.05;57.09;100277.94;123871;1099;104350;-79
2023/06/24 04:12:51;;;;;;;14.37;7.97;;;;;;;25.09;57.48;100255.46;124079;1099;105597;-80
2023/06/24 04:15:22;;;;;;;16.00;7.90;;;;;;;25.11;57.79;100236.63;123808;1099;104197;-80
2023/06/24 04:17:53;;;;;;;17.50;8.17;;;;;;;25.11;57.92;100207.97;124150;1099;104715;-78
2023/06/24 04:20:25;;;;;;;13.90;7.85;;;;;;;25.12;57.46;100207.05;123836;1099;104271;-79
2023/06/24 04:22:56;;;;;;;17.13;7.90;;;;;;;25.15;57.41;100205.19;124051;1099;104428;-80
2023/06/24 04:25:27;;;;;;;17.57;8.07;;;;;;;25.14;57.92;100195.41;123865;1102;104278;-78
2023/06/24 04:27:59;;;;;;;16.20;7.60;;;;;;;25.11;57.83;100186.49;123887;1102;104268;-80
2023/06/24 04:30:30;;;;;;;15.93;8.40;;;;;;;25.08;57.96;100194.63;123976;1099;104275;-80
2023/06/24 04:33:02;;;;;;;16.40;7.85;;;;;;;25.08;57.88;100228.66;123910;1099;104245;-80
2023/06/24 04:35:33;;;;;;;18.93;8.10;;;;;;;25.10;57.45;100265.29;123963;1099;108236;-80
2023/06/24 04:38:04;;;;;;;18.17;8.30;;;;;;;25.14;57.58;100297.42;124323;1099;104274;-82
2023/06/24 04:40:36;;;;;;;16.80;7.63;;;;;;;25.15;57.67;100316.17;124135;1099;104217;-83
2023/06/24 04:43:07;;;;;;;18.77;8.10;;;;;;;25.19;58.08;100335.75;124284;1099;104274;-80
2023/06/24 04:45:38;;;;;;;15.30;8.17;;;;;;;25.20;58.24;100342.89;123944;1102;104252;-80
2023/06/24 04:48:09;;;;;;;15.57;7.70;;;;;;;25.19;58.38;100338.43;124200;1099;104415;-81
2023/06/24 04:50:41;;;;;;;15.53;8.30;;;;;;;25.21;58.47;100345.53;124218;1099;104269;-81
2023/06/24 04:53:12;;;;;;;19.30;8.60;;;;;;;25.26;58.75;100356.15;124056;1099;104242;-79
2023/06/24 04:55:44;;;;;;;16.13;8.83;;;;;;;25.29;58.87;100350.70;123955;1099;104245;-81
2023/06/24 04:58:15;;;;;;;16.60;8.60;;;;;;;25.33;59.57;100356.88;124395;1099;104271;-77
2023/06/24 05:00:46;;;;;;;18.73;8.77;;;;;;;25.30;59.86;100352.47;124072;1099;104307;-80
2023/06/24 05:03:17;;;;;;;17.87;9.03;;;;;;;25.27;60.15;100357.89;124513;1098;104283;-78
2023/06/24 05:05:49;;;;;;;16.53;8.80;;;;;;;25.26;59.91;100362.39;124248;1098;104325;-79
2023/06/24 05:08:20;;;;;;;18.93;9.57;;;;;;;25.26;60.00;100362.39;124248;1099;104723;-80
2023/06/24 05:10:51;;;;;;;18.93;9.37;;;;;;;25.33;60.54;100357.75;124147;1099;104309;-80
2023/06/24 05:13:23;;;;;;;17.60;10.00;;;;;;;25.31;60.26;100354.24;124240;1099;104613;-80
2023/06/24 05:15:54;;;;;;;20.23;9.37;;;;;;;25.32;60.20;100360.48;123762;1099;104348;-79
2023/06/24 05:18:25;;;;;;;19.00;9.40;;;;;;;25.31;60.42;100359.61;123945;1099;104236;-79
2023/06/24 05:20:56;;;;;;;18.40;9.63;;;;;;;25.37;59.83;100358.54;124010;1099;104267;-81
2023/06/24 05:23:28;;;;;;;17.87;9.63;;;;;;;25.42;60.19;100348.58;123999;1099;104309;-81
2023/06/24 05:25:59;;;;;;;20.23;9.33;;;;;;;25.45;59.83;100361.91;124071;1099;104399;-82
2023/06/24 05:28:30;;;;;;;19.30;9.70;;;;;;;25.52;59.99;100367.98;124231;1099;104347;-81
2023/06/24 05:31:01;;;;;;;17.43;8.80;;;;;;;25.62;59.84;100375.74;124195;1099;104242;-82
2023/06/24 05:33:33;;;;;;;18.07;8.93;;;;;;;25.67;59.71;100372.92;124234;1099;104242;-80
2023/06/24 05:36:04;;;;;;;16.40;8.50;;;;;;;25.75;59.71;100370.89;124298;1099;104345;-80
2023/06/24 05:38:35;;;;;;;16.83;9.67;;;;;;;25.84;59.27;100385.87;124246;1099;104398;-80
2023/06/24 05:41:07;;;;;;;18.77;9.70;;;;;;;25.93;59.68;100387.39;124237;1099;104275;-81
2023/06/24 05:43:38;;;;;;;20.07;10.33;;;;;;;26.03;59.18;100399.67;124234;1099;104270;-80
2023/06/24 05:46:09;;;;;;;20.87;9.40;;;;;;;26.11;59.06;100399.45;123899;1099;104306;-81
2023/06/24 05:48:42;;;;;;;17.70;9.07;;;;;;;26.20;59.22;100409.92;124118;1099;104360;-81
2023/06/24 05:51:20;;;;;;;20.30;9.23;;;;;;;26.28;59.06;100413.25;124213;1099;104386;-80
2023/06/24 05:53:54;;;;;;;21.27;9.73;;;;;;;26.37;58.96;100417.48;124234;1099;104338;-79
2023/06/24 05:56:26;;;;;;;20.10;9.20;;;;;;;26.45;58.96;100415.42;124074;1099;104217;-79
2023/06/24 05:58:59;;;;;;;19.10;9.27;;;;;;;26.49;58.75;100417.09;124065;1099;104185;-79
2023/06/24 06:01:30;;;;;;;19.40;10.05;;;;;;;26.50;58.69;100416.14;124076;1099;104676;-78
2023/06/24 06:04:01;;;;;;;18.77;9.53;;;;;;;26.54;58.95;100420.51;124006;1099;104504;-79
2023/06/24 06:06:33;;;;;;;14.47;9.07;;;;;;;26.57;58.39;100427.61;124098;1099;104293;-78
2023/06/24 06:09:06;;;;;;;17.23;9.90;;;;;;;26.66;58.66;100429.14;124009;1099;104194;-79
2023/06/24 06:11:37;;;;;;;19.70;9.83;;;;;;;26.74;58.62;100419.03;123835;1099;104325;-80
2023/06/24 06:14:08;;;;;;;20.20;9.70;;;;;;;26.81;58.33;100417.88;124078;1099;104310;-80
2023/06/24 06:16:39;;;;;;;15.27;8.67;;;;;;;26.84;58.02;100411.53;123882;1099;104300;-79
2023/06/24 06:19:11;;;;;;;20.43;10.10;;;;;;;26.89;58.28;100423.02;123867;1099;104208;-81
2023/06/24 06:21:42;;;;;;;19.00;9.60;;;;;;;26.94;57.97;100412.09;123918;1099;104245;-81
2023/06/24 06:24:13;;;;;;;18.23;9.43;;;;;;;27.01;57.74;100405.58;124136;1099;104229;-80
2023/06/24 06:26:46;;;;;;;16.77;9.27;;;;;;;27.08;58.09;100401.72;124029;1099;104703;-81
2023/06/24 06:29:17;;;;;;;17.17;9.20;;;;;;;27.15;57.62;100397.90;124215;1099;104357;-81
2023/06/24 06:31:48;;;;;;;18.30;9.57;;;;;;;27.25;58.02;100393.06;124083;1099;104300;-83
2023/06/24 06:34:21;;;;;;;16.50;9.77;;;;;;;27.35;58.07;100402.63;124201;1099;104290;-81
2023/06/24 06:36:52;;;;;;;16.53;10.03;;;;;;;27.43;57.31;100399.66;124236;1099;105485;-82
2023/06/24 06:39:23;;;;;;;18.40;9.77;;;;;;;27.50;57.13;100405.70;123997;1099;104316;-80
2023/06/24 06:41:54;;;;;;;18.80;9.93;;;;;;;27.56;57.29;100390.17;123968;1099;104379;-80
2023/06/24 06:44:29;;;;;;;16.23;9.47;;;;;;;27.66;56.79;100398.83;123904;1102;104341;-79
2023/06/24 06:47:00;;;;;;;20.17;9.60;;;;;;;27.72;56.44;100390.52;123988;1099;104286;-80
2023/06/24 06:49:31;;;;;;;16.50;9.20;;;;;;;27.79;56.53;100394.72;124221;1099;104232;-82
2023/06/24 06:52:02;;;;;;;14.63;8.70;;;;;;;27.88;55.89;100387.24;124167;1099;104296;-81
2023/06/24 06:54:33;;;;;;;18.77;9.20;;;;;;;27.96;56.09;100372.54;124224;1099;104400;-82
2023/06/24 06:57:05;;;;;;;18.70;9.87;;;;;;;28.05;55.23;100375.81;124402;1099;104252;-80
2023/06/24 06:59:37;;;;;;;19.03;9.73;;;;;;;28.17;54.89;100374.46;124218;1099;104277;-78
2023/06/24 07:02:08;;;;;;;14.67;8.50;;;;;;;28.30;55.20;100384.71;124251;1099;104226;-81
2023/06/24 07:04:39;;;;;;;17.37;9.20;;;;;;;28.42;54.60;100377.05;124099;1099;104268;-81
2023/06/24 07:07:11;;;;;;;17.60;8.93;;;;;;;28.52;54.64;100383.84;124056;1099;104428;-81
2023/06/24 07:09:43;;;;;;;15.67;8.27;;;;;;;28.61;54.10;100374.50;124307;1099;104341;-80
2023/06/24 07:12:14;;;;;;;14.77;8.17;;;;;;;28.80;54.19;100374.64;124256;1099;104702;-82
2023/06/24 07:14:45;;;;;;;16.53;8.47;;;;;;;28.97;53.60;100369.39;124198;1099;104353;-81
2023/06/24 07:17:16;;;;;;;17.13;8.47;;;;;;;29.13;53.12;100366.03;123658;1099;104312;-81
2023/06/24 07:19:47;;;;;;;15.97;8.03;;;;;;;29.29;52.65;100361.73;124135;1099;104366;-80
2023/06/24 07:22:18;;;;;;;16.50;8.20;;;;;;;29.44;52.61;100356.61;124129;1099;104271;-80
2023/06/24 07:24:49;;;;;;;16.00;8.40;;;;;;;29.64;51.99;100350.27;124373;1099;104165;-79
2023/06/24 07:27:20;;;;;;;19.23;8.30;;;;;;;29.84;51.67;100346.66;124083;1099;104242;-80
2023/06/24 07:29:52;;;;;;;15.73;8.90;;;;;;;30.06;51.63;100339.30;124161;1099;104338;-80
2023/06/24 07:32:23;;;;;;;17.60;8.43;;;;;;;30.24;51.02;100350.17;124351;1099;104389;-79
2023/06/24 07:34:54;;;;;;;18.33;8.40;;;;;;;30.36;50.78;100363.11;124178;1098;104217;-83
2023/06/24 07:37:25;;;;;;;16.50;9.00;;;;;;;30.53;49.57;100354.19;124041;1099;105052;-80
2023/06/24 07:39:56;;;;;;;18.70;8.43;;;;;;;30.64;50.14;100354.52;124132;1099;104644;-81
2023/06/24 07:42:27;;;;;;;18.80;8.97;;;;;;;30.76;49.81;100355.75;124314;1099;104243;-82
2023/06/24 07:44:58;;;;;;;17.83;9.10;;;;;;;30.84;49.50;100355.36;124055;1098;104421;-80
2023/06/24 07:47:29;;;;;;;15.20;8.63;;;;;;;30.98;48.73;100362.81;123904;1099;104796;-83
2023/06/24 07:50:00;;;;;;;15.17;8.30;;;;;;;31.15;48.94;100351.06;124115;1099;104328;-80
2023/06/24 07:52:31;;;;;;;16.27;8.40;;;;;;;31.35;47.84;100348.20;124212;1099;104248;-79
2023/06/24 07:55:03;;;;;;;15.65;8.45;;;;;;;31.44;48.09;100341.38;124056;1098;104160;-81
2023/06/24 07:57:34;;;;;;;16.47;8.97;;;;;;;31.59;47.64;100341.56;124033;1099;104290;-81
2023/06/24 08:00:09;;;;;;;15.27;9.07;;;;;;;31.66;46.99;100342.97;124291;1099;104268;-80
2023/06/24 08:02:45;;;;;;;18.17;8.83;;;;;;;31.68;46.57;100336.51;124379;1099;104334;-81
2023/06/24 08:05:18;;;;;;;16.53;8.63;;;;;;;31.83;46.42;100336.61;123954;1099;104264;-80
2023/06/24 08:07:49;;;;;;;17.33;8.50;;;;;;;32.04;46.27;100331.83;124246;1099;104339;-82
2023/06/24 08:10:20;;;;;;;15.40;8.73;;;;;;;32.15;46.18;100317.65;124317;1099;104320;-83
2023/06/24 08:12:51;;;;;;;15.60;9.07;;;;;;;32.28;45.53;100332.28;124221;1099;104251;-81
2023/06/24 08:15:22;;;;;;;15.67;8.33;;;;;;;32.37;45.60;100323.60;123792;1099;104195;-81
2023/06/24 08:17:55;;;;;;;16.77;8.93;;;;;;;32.46;45.38;100324.02;123961;1099;104271;-81
2023/06/24 08:20:26;;;;;;;16.82;9.08;;;;;;;32.47;45.32;100313.07;124270;1099;104235;-79
2023/06/24 08:22:57;;;;;;;17.37;8.67;;;;;;;32.60;44.37;100314.11;123990;1099;104342;-81
2023/06/24 08:25:28;;;;;;;14.37;8.40;;;;;;;32.72;44.29;100319.80;123830;1099;104236;-79
2023/06/24 08:28:00;;;;;;;18.77;9.20;;;;;;;32.76;44.35;100324.09;124017;1099;104642;-80
2023/06/24 08:30:31;;;;;;;15.87;8.47;;;;;;;32.89;43.87;100314.22;123823;1099;104181;-81
2023/06/24 08:33:02;;;;;;;13.80;8.35;;;;;;;33.08;43.83;100318.53;124273;1099;104264;-82
2023/06/24 08:35:33;;;;;;;14.13;8.57;;;;;;;33.25;43.53;100315.67;124144;1099;104408;-82
2023/06/24 08:38:05;;;;;;;16.40;8.95;;;;;;;33.36;43.31;100315.00;124256;1099;104236;-81
2023/06/24 08:40:39;;;;;;;14.53;8.90;;;;;;;33.44;42.95;100320.86;123811;1099;110937;-81
2023/06/24 08:43:11;;;;;;;16.70;8.55;;;;;;;33.51;42.61;100313.17;124334;1099;104207;-81
2023/06/24 08:45:42;;;;;;;15.13;9.53;;;;;;;33.62;42.59;100317.94;123827;1099;104309;-79
2023/06/24 08:48:14;;;;;;;14.97;8.50;;;;;;;33.77;42.16;100318.81;123903;1099;104357;-81
2023/06/24 08:50:51;;;;;;;16.77;9.05;;;;;;;33.90;41.88;100322.50;124135;1099;104364;-81
2023/06/24 08:53:24;;;;;;;17.10;8.97;;;;;;;34.00;41.25;100320.94;124258;1098;104210;-82
2023/06/24 08:55:57;;;;;;;14.75;9.05;;;;;;;34.08;41.15;100308.66;123927;1099;104358;-79
2023/06/24 08:58:29;;;;;;;17.40;9.00;;;;;;;34.10;40.93;100304.87;124055;1099;104377;-80
2023/06/24 09:01:00;;;;;;;16.10;9.20;;;;;;;34.18;40.64;100312.53;123858;1099;109817;-83
2023/06/24 09:03:31;;;;;;;17.20;8.90;;;;;;;34.21;40.70;100302.30;123778;1099;104258;-81
2023/06/24 09:06:03;;;;;;;15.83;8.63;;;;;;;34.23;40.20;100295.89;123882;1099;104252;-80
2023/06/24 09:08:35;;;;;;;16.63;8.70;;;;;;;34.22;40.58;100284.14;123685;1099;104427;-81
2023/06/24 09:11:09;;;;;;;14.50;8.43;;;;;;;34.20;39.97;100286.06;123974;1099;118204;-82
2023/06/24 09:13:40;;;;;;;16.73;8.50;;;;;;;34.24;40.02;100276.77;124085;1099;104316;-81
2023/06/24 09:16:17;;;;;;;15.57;8.90;;;;;;;34.30;39.81;100280.91;124076;1099;104239;-79
2023/06/24 09:18:52;;;;;;;16.80;9.23;;;;;;;34.25;39.36;100281.21;123919;1099;104264;-80
2023/06/24 09:21:30;;;;;;;14.97;8.33;;;;;;;34.32;39.57;100290.73;123806;1099;104268;-79
2023/06/24 09:24:01;;;;;;;18.77;9.20;;;;;;;34.41;39.25;100283.80;124021;1099;104275;-82
2023/06/24 09:26:32;;;;;;;14.00;9.10;;;;;;;34.53;39.42;100284.80;124122;1099;104492;-79
2023/06/24 09:29:04;;;;;;;15.70;9.03;;;;;;;34.58;39.07;100279.93;123903;1099;104266;-79
2023/06/24 09:31:36;;;;;;;17.35;9.50;;;;;;;34.65;38.79;100280.38;123684;1099;111958;-81
2023/06/24 09:34:09;;;;;;;15.97;9.27;;;;;;;34.76;38.83;100272.35;123956;1099;104236;-78
2023/06/24 09:36:44;;;;;;;15.67;8.93;;;;;;;34.78;38.22;100277.70;123953;1099;104223;-82
2023/06/24 09:39:16;;;;;;;14.47;8.60;;;;;;;34.76;38.16;100268.77;123980;1098;104200;-81
2023/06/24 09:41:51;;;;;;;12.90;8.70;;;;;;;34.84;38.21;100275.41;124036;1099;104251;-79
2023/06/24 09:44:22;;;;;;;15.03;8.80;;;;;;;34.87;38.26;100271.61;124482;1099;104300;-78
2023/06/24 09:46:54;;;;;;;19.10;9.45;;;;;;;34.85;37.79;100271.72;124020;1099;104173;-79
2023/06/24 09:49:25;;;;;;;19.20;9.20;;;;;;;34.77;37.85;100265.04;124004;1099;104297;-80
2023/06/24 09:52:00;;;;;;;16.63;10.03;;;;;;;34.67;37.81;100260.22;123962;1099;104192;-81
2023/06/24 09:54:31;;;;;;;13.50;9.00;;;;;;;34.57;37.55;100267.27;123919;1099;104373;-81
2023/06/24 09:57:06;;;;;;;17.70;8.80;;;;;;;34.65;37.83;100267.61;124062;1099;104360;-80
2023/06/24 09:59:37;;;;;;;18.17;9.37;;;;;;;34.85;37.47;100265.40;124137;1099;104265;-80
2023/06/24 10:02:13;;;;;;;15.53;8.97;;;;;;;35.09;37.43;100274.58;124080;1099;104301;-81
2023/06/24 10:04:47;;;;;;;16.20;8.87;;;;;;;35.25;37.44;100273.49;124373;1099;104240;-80
2023/06/24 10:07:18;;;;;;;15.23;9.20;;;;;;;35.29;37.48;100283.21;124097;1099;104332;-81
2023/06/24 10:09:49;;;;;;;16.07;8.97;;;;;;;35.38;37.12;100276.23;124041;1099;104282;-80
2023/06/24 10:12:21;;;;;;;17.07;9.13;;;;;;;35.42;37.26;100273.17;124118;1099;104344;-80
2023/06/24 10:14:52;;;;;;;14.10;8.77;;;;;;;35.35;36.99;100269.14;124291;1099;104371;-81
2023/06/24 10:17:24;;;;;;;16.50;9.23;;;;;;;35.22;36.77;100270.98;124276;1099;104497;-80
2023/06/24 10:19:56;;;;;;;14.95;8.93;;;;;;;35.16;36.68;100271.42;124127;1099;104229;-80
2023/06/24 10:22:31;;;;;;;16.13;8.80;;;;;;;35.17;36.91;100271.31;124314;1099;104268;-79
2023/06/24 10:25:06;;;;;;;14.03;9.00;;;;;;;35.24;36.79;100266.28;124024;1099;104197;-79
2023/06/24 10:27:42;;;;;;;15.13;9.03;;;;;;;35.34;36.60;100261.92;124047;1099;104242;-80
2023/06/24 10:30:20;;;;;;;17.03;8.63;;;;;;;35.50;36.47;100258.09;124175;1099;104219;-81
2023/06/24 10:32:54;;;;;;;13.60;8.70;;;;;;;35.72;36.39;100261.00;124513;1099;104348;-82
2023/06/24 10:35:29;;;;;;;14.15;8.70;;;;;;;35.89;36.08;100259.79;124336;1099;104617;-80
2023/06/24 10:38:02;;;;;;;14.57;8.20;;;;;;;36.05;35.99;100254.05;124421;1099;104270;-79
2023/06/24 10:40:40;;;;;;;16.20;8.60;;;;;;;36.07;35.63;100245.73;124334;1099;104223;-82
2023/06/24 10:43:30;;;;;;;13.60;8.30;;;;;;;36.11;35.83;100241.80;124312;1098;107545;-82
2023/06/24 10:46:01;;;;;;;14.80;8.20;;;;;;;36.12;35.56;100251.70;124358;1099;104306;-84
2023/06/24 10:48:32;;;;;;;14.60;8.20;;;;;;;36.21;35.49;100244.69;124416;1098;104267;-82
2023/06/24 10:51:04;;;;;;;13.57;8.53;;;;;;;36.24;35.22;100242.59;124183;1099;104223;-82
2023/06/24 10:53:35;;;;;;;16.87;8.43;;;;;;;36.30;35.36;100235.83;124303;1099;104287;-83
2023/06/24 10:56:07;;;;;;;16.77;8.40;;;;;;;36.29;35.04;100232.23;124202;1099;104268;-82
2023/06/24 10:58:38;;;;;;;15.17;8.90;;;;;;;36.24;34.89;100239.00;124164;1099;104287;-84
2023/06/24 11:01:15;;;;;;;14.43;8.10;;;;;;;36.10;35.15;100231.84;124193;1099;104342;-83
2023/06/24 11:03:46;;;;;;;13.63;8.27;;;;;;;35.84;34.90;100231.08;124183;1099;104195;-84
2023/06/24 11:06:17;;;;;;;14.17;8.20;;;;;;;35.71;34.67;100231.95;124129;1099;104517;-84
2023/06/24 11:08:48;;;;;;;13.97;8.00;;;;;;;35.62;34.85;100232.64;123923;1099;104392;-84
2023/06/24 11:11:23;;;;;;;12.20;7.93;;;;;;;35.60;34.65;100229.16;124426;1099;104249;-83
2023/06/24 11:13:55;;;;;;;12.43;8.00;;;;;;;35.52;34.63;100232.45;124228;1098;104271;-81
2023/06/24 11:16:26;;;;;;;13.70;8.08;;;;;;;35.47;34.56;100229.20;123904;1099;104325;-81
2023/06/24 11:18:57;;;;;;;15.60;8.47;;;;;;;35.37;34.73;100226.25;124154;1099;104258;-82
2023/06/24 11:21:32;;;;;;;15.90;8.13;;;;;;;35.32;34.90;100222.99;123866;1099;104393;-81
2023/06/24 11:24:04;;;;;;;15.90;8.10;;;;;;;35.42;34.93;100218.62;124137;1099;104265;-81
2023/06/24 11:26:36;;;;;;;13.35;8.20;;;;;;;35.53;34.83;100216.94;124068;1099;104265;-83